Brookline Village, Massachusetts
Current Conditions -  °F | °C
As of 2:54 PM on Friday 19 Dec 2014 (Local Time) from KBOS Reporting Station
Scattered Clouds Scattered Clouds  
Wind Chill: 27°   Ceiling: Unl
Heat Index: 35°   Visibility: 10mi
Dew Point: 22°   Wind: 12mph
Humidity: 59%   Direction: 300°WNW
Pressure: 29.98"   Gusts: NA
Location:  42.33°N, 71.12°W
Report Text: KBOS 191954Z 30010KT 10SM SCT035 SCT055 02/M06 A2998 RMK AO2 SLP150 T00171056
Loading
Personal Weather Stations






























Interactive Weather Map New forecast layout! Learn more

10-Day Weather Forecast

Advertisements
Track Severe Weather on mobile